सभी
Fugleberg Farm Airport (Portland, ND) 6ND6 मौसम
There is no TAF data available at 6ND6 or any nearby airports.
There is no METAR data available at 6ND6. Showing METAR data for S32 (27 mi W).
Recent S32 METAR history (no data for 6ND6)
| Date | Time (CDT) | Flight Rules | Wind Dir. | Speed | Type | Height AGL (ft) | Visibility | Temp (°C) | Temp (°F) | Dew Point (°C) | Dew Point (°F) | Rel. Humid. | Pressure | Density Altitude | Remarks |
|---|---|---|---|---|---|---|---|---|---|---|---|---|---|---|---|
| 05-मई | 08:15 | VFR | 10° | 7 kt | 10 miles | 1° | 33° | -3° | 26° | 75% | 29.87 in Hg | 32 ft | |||
| 05-मई | 07:55 | VFR | 30° | 6 kt | 10 miles | 0° | 32° | -4° | 24° | 74% | 29.86 in Hg | -78 ft | |||
| 05-मई | 07:35 | VFR | 30° | 7 kt | 10 miles | 0° | 32° | -3° | 26° | 80% | 29.85 in Hg | -68 ft | |||
| 05-मई | 07:15 | VFR | 20° | 13 kt | 10 miles | 0° | 32° | -3° | 26° | 80% | 29.84 in Hg | -58 ft | |||
| 05-मई | 06:55 | VFR | 10° | 12 kt | 10 miles | 1° | 33° | -2° | 28° | 80% | 29.83 in Hg | 72 ft | |||
| 05-मई | 06:35 | VFR | 320° | 10 kt | 10 miles | 2° | 35° | -3° | 26° | 69% | 29.82 in Hg | 202 ft | |||
| 05-मई | 06:15 | VFR | 300° | 9 kt | 10 miles | 1° | 33° | -3° | 26° | 75% | 29.82 in Hg | 82 ft | |||
| 05-मई | 05:55 | VFR | 300° | 9 kt | 10 miles | 1° | 33° | -3° | 26° | 75% | 29.81 in Hg | 92 ft | |||
| 05-मई | 05:35 | VFR | 290° | 9 kt | 10 miles | 1° | 33° | -4° | 24° | 69% | 29.81 in Hg | 92 ft | |||
| 05-मई | 05:15 | VFR | 290° | 9 kt | 10 miles | 1° | 33° | -4° | 24° | 69% | 29.81 in Hg | 92 ft | |||
| 05-मई | 04:55 | VFR | 290° | 10 kt | 10 miles | 1° | 33° | -4° | 24° | 69% | 29.81 in Hg | 92 ft | |||
| 05-मई | 04:35 | VFR | 290° | 10 kt | 10 miles | 1° | 33° | -3° | 26° | 75% | 29.81 in Hg | 92 ft | |||
| 05-मई | 04:15 | VFR | 280° | 10 kt | 10 miles | 0° | 32° | -2° | 28° | 86% | 29.80 in Hg | -18 ft | |||
| 05-मई | 03:55 | VFR | 270° | 8 kt | 10 miles | 0° | 32° | -2° | 28° | 86% | 29.80 in Hg | -18 ft | |||
| 05-मई | 03:15 | VFR | 260° | 7 kt | 10 miles | 0° | 32° | -1° | 30° | 93% | 29.80 in Hg | -18 ft | |||
| 05-मई | 02:55 | VFR | 260° | 7 kt | 10 miles | 0° | 32° | -1° | 30° | 93% | 29.80 in Hg | -18 ft | |||
| 05-मई | 02:35 | VFR | 260° | 7 kt | 10 miles | -1° | 30° | -2° | 28° | 93% | 29.80 in Hg | -138 ft | |||
| 05-मई | 02:15 | VFR | 250° | 6 kt | 10 miles | -2° | 28° | -2° | 28° | 100% | 29.80 in Hg | -258 ft | |||
| 05-मई | 01:55 | VFR | 240° | 6 kt | 10 miles | -2° | 28° | -2° | 28° | 100% | 29.81 in Hg | -268 ft | |||
| 05-मई | 01:35 | VFR | 240° | 5 kt | 10 miles | -2° | 28° | -2° | 28° | 100% | 29.80 in Hg | -258 ft | |||
| 05-मई | 01:15 | VFR | 250° | 5 kt | 10 miles | -3° | 26° | -2° | 28° | 100% | 29.81 in Hg | -388 ft | |||
| 05-मई | 00:55 | VFR | Calm | 10 miles | -4° | 24° | -4° | 24° | 100% | 29.81 in Hg | -508 ft | ||||
| 05-मई | 00:35 | VFR | 300° | 3 kt | 10 miles | -4° | 24° | -5° | 23° | 93% | 29.80 in Hg | -498 ft | |||
| 05-मई | 00:15 | VFR | 320° | 4 kt | 10 miles | -2° | 28° | -4° | 24° | 86% | 29.80 in Hg | -258 ft |
लॉगिन
| Your browser is unsupported. अपना ब्राऊजर अपग्रेड करें |
